Golden, CO

9:56 AM MST on January 21, 2018 (GMT -0700)
| | Change Station
Active Advisory: Winter Storm Warning

Elev -9999 ft 0.00 °N, 0.00 °E | Updated 5 minutes ago

Snow
Snow
°F
Feels Like °F
N
Wind Variable Wind from North
Gusts mph

Today
High -- | Low -- °F
--% Chance of Precip.
Yesterday
High -- | Low -- °F
Precip. -- in
Pressure 29.84 in
Visibility 1.0 miles
Clouds Overcast 500 ft
Dew Point Not available.
Humidity Not available.
Rainfall --
Snow Depth Not available.
7:17 AM 5:07 PM
Waxing Crescent, 19% visible
METAR KBJC 211646Z 35013KT 1SM -SN OVC005 M03/M04 A2984
Pressure 29.84 in
Visibility 1.0 miles
Clouds Overcast 500 ft
Dew Point Not available.
Humidity Not available.
Rainfall --
Snow Depth Not available.
7:17 AM 5:07 PM
Waxing Crescent, 19% visible
METAR KBJC 211646Z 35013KT 1SM -SN OVC005 M03/M04 A2984

Get Your Daily Forecast Email!

Thanks for signing up!

Be on the lookout for a verification email in your inbox.

You'll start receiving severe weather alerts in your inbox..

×

10-Day Weather Forecast

Almanac

Astronomy

Jan. 21, 2018 Rise Set
Actual Time
Civil Twilight
Nautical Twilight
Astronomical Twilight
Moon
Length of Visible Light
Length of Day
Tomorrow will be .
, % of the Moon is Illuminated

Today's Extremes

State Highs State Lows

Community

WunderPhotos

Category 6

Welcome to Category 6. This is the collective home for Weather Underground's featured writeups by Dr. Jeff Masters (right), Bob Henson (left), Chris Burt, and other regular contributors.

Nearby

Air Quality

  Air Quality AQ Index Pollutant
Not available.

Snow Depth

Station Depth Elevation

Earthquake Activity

City Distance Mag. Time & Date
Minimum magnitude displayed is 2.5.

Coastal Water Temperatures

Place Temperature

Stations

Nearby Weather Stations

Station Location Temp. Windchill Dew Point Humidity Wind Precip. Elev Updated Type
                   

Watches & Warnings

Winter Storm Warning
Issued: 9:23 AM MST Jan. 21, 2018 – National Weather Service

... Winter Storm Warning remains in effect until noon MST today...

* what... snow occurring. Plan on difficult travel
conditions. Snow accumulations of 5 to 10 inches
are expected, heaviest snow on east facing slopes.

* Where... Rabbit Ears Pass, Rocky Mountain National Park and the
Medicine Bow range, the mountains of Summit County, the
Mosquito Range, and the Indian Peaks, the northern Front Range
foothills and the southern Front Range foothills.

* When... until noon MST today.

* Additional details... be prepared for significant reductions in
visibility at times.

Precautionary/preparedness actions...

A Winter Storm Warning for snow means severe winter weather
conditions are occurring. If you must travel, keep an extra
flashlight, food and water in your vehicle in case of an
emergency. The latest Road conditions for the state you are
calling from can be obtained by calling 5 1 1.